F4BHZ-13 Weather Reports


Display with metric or nautical units.
time (UTC)temp
F
wind
direction
speed
MPH
gust
MPH
rain 1hr
in
rain 24hr
in
rain mn
in
humidity
%
barometer
mb
20191022114811 59 68 1.0 10.0 0.00 0.00 0.00 74 1024.3
20191021213000 46 0 0.0 0.0 0.00 0.00 0.00 89 1024.2
20191021212101 46 0 0.0 0.0 0.00 0.00 0.00 89 1024.1
20191021211201 46 0 0.0 0.0 0.00 0.00 0.00 89 1024.0
20191021210302 46 0 0.0 0.0 0.00 0.00 0.00 89 1024.0
20191021205400 46 0 0.0 0.0 0.00 0.00 0.00 89 1024.0
20191021204501 47 0 0.0 0.0 0.00 0.00 0.00 89 1023.9
20191021203601 47 0 0.0 0.0 0.00 0.00 0.00 88 1023.9
20191021202700 47 0 0.0 0.0 0.00 0.00 0.00 89 1023.9
20191021201800 47 0 0.0 0.0 0.00 0.00 0.00 88 1023.8
20191021200901 47 0 0.0 0.0 0.00 0.00 0.00 88 1023.7
20191021200001 48 0 0.0 0.0 0.00 0.00 0.00 88 1023.8
20191021195101 48 0 0.0 0.0 0.00 0.00 0.00 88 1023.7
20191021194200 48 0 0.0 0.0 0.00 0.00 0.00 87 1023.6
20191021193301 49 0 0.0 0.0 0.00 0.00 0.00 87 1023.5
20191021192401 49 0 0.0 0.0 0.00 0.00 0.00 87 1023.5
20191021191501 49 0 0.0 0.0 0.00 0.00 0.00 87 1023.4
20191021190600 50 0 0.0 0.0 0.00 0.00 0.00 86 1023.4
20191021185701 50 0 0.0 0.0 0.00 0.00 0.00 86 1023.4
20191021184800 50 0 0.0 0.0 0.00 0.00 0.00 86 1023.4
20191021183904 51 0 0.0 0.0 0.00 0.00 0.00 86 1023.3
20191021183000 51 0 0.0 0.0 0.00 0.00 0.00 85 1023.3
20191021182100 51 0 0.0 0.0 0.00 0.00 0.00 84 1023.2
20191021181200 52 0 0.0 0.0 0.00 0.00 0.00 83 1023.1
20191021180300 53 0 0.0 0.0 0.00 0.00 0.00 83 1023.0
20191021175400 54 0 0.0 0.0 0.00 0.00 0.00 82 1023.0
20191021174501 54 0 0.0 0.0 0.00 0.00 0.00 81 1022.9
20191021155518 64 0 0.0 0.0 0.00 0.00 0.00 63 1021.8
20191021154618 64 0 0.0 0.0 0.00 0.00 0.00 63 1021.7
20191021153718 64 0 0.0 0.0 0.00 0.00 0.00 64 1021.7
20191021152818 64 71 0.0 1.0 0.00 0.00 0.00 63 1021.7
20191021151918 64 53 0.0 5.0 0.00 0.00 0.00 60 1021.6
20191021151018 66 0 0.0 0.0 0.00 0.00 0.00 61 1021.5
20191021150118 66 0 0.0 0.0 0.00 0.00 0.00 60 1021.5
20191021145218 65 0 0.0 0.0 0.00 0.00 0.00 56 1021.4
20191021144318 65 72 0.0 1.0 0.00 0.00 0.00 56 1021.4
20191021143418 66 77 0.0 1.0 0.00 0.00 0.00 55 1021.4
20191021142518 66 56 0.0 1.0 0.00 0.00 0.00 59 1021.5
20191021141618 65 72 0.0 1.0 0.00 0.00 0.00 57 1021.5
20191021140718 65 50 0.0 4.0 0.00 0.00 0.00 59 1021.5
20191021135818 65 52 0.0 4.0 0.00 0.01 0.00 60 1021.5
20191021134918 65 75 0.0 2.0 0.00 0.01 0.00 58 1021.5
20191021134018 65 102 0.0 1.0 0.00 0.01 0.00 59 1021.4
20191021133118 64 0 0.0 0.0 0.00 0.01 0.00 61 1021.4
20191021132218 64 0 0.0 0.0 0.00 0.01 0.00 58 1021.4
20191021131318 64 0 0.0 0.0 0.00 0.01 0.00 59 1021.4
20191021130419 64 0 0.0 0.0 0.00 0.01 0.00 60 1021.4
20191021125519 63 0 0.0 0.0 0.00 0.01 0.00 61 1021.4
20191021124618 63 0 0.0 0.0 0.00 0.01 0.00 62 1021.4
20191021123718 62 77 0.0 2.0 0.00 0.01 0.00 62 1021.4
20191021122818 62 73 0.0 1.0 0.00 0.01 0.00 63 1021.4
20191021121918 62 63 0.0 3.0 0.00 0.01 0.00 65 1021.4
20191021121018 61 116 0.0 1.0 0.00 0.01 0.00 64 1021.4